Tuckahoe, New York
Current Conditions -  °F | °C
As of 6:56 AM on Sunday 25 Jan 2015 (Local Time) from KHPN Reporting Station
Broken Clouds Broken Clouds  
Wind Chill: 28°   Ceiling: 4800
Heat Index: 33°   Visibility: 10mi
Dew Point: 24°   Wind: 6mph
Humidity: 70%   Direction: 250°WSW
Pressure: 29.6"   Gusts: NA
Location:  40.95°N, 73.83°W
Report Text: KHPN 251156Z 25005KT 10SM BKN048 01/M04 A2960 RMK AO2 SLP031 70005 T00061044 10011 20000 53022 $
Loading
Personal Weather Stations






























Interactive Weather Map New forecast layout! Learn more

10-Day Weather Forecast

Advertisements
Track Severe Weather on mobile